createdAt,value
2023-04-23T00:00:00.520Z,11.8
2023-04-23T00:01:00.504Z,11.8
2023-04-23T00:02:00.516Z,11.7
2023-04-23T00:03:00.562Z,11.7
2023-04-23T00:04:00.697Z,11.8
2023-04-23T00:05:00.592Z,11.8
2023-04-23T00:06:00.537Z,11.8
2023-04-23T00:07:00.489Z,11.8
2023-04-23T00:08:00.515Z,11.8
2023-04-23T00:09:00.550Z,11.8
2023-04-23T00:10:00.524Z,11.8
2023-04-23T00:11:00.517Z,11.9
2023-04-23T00:12:00.491Z,11.9
2023-04-23T00:13:00.495Z,11.9
2023-04-23T00:14:00.534Z,11.9
2023-04-23T00:15:00.541Z,11.9
2023-04-23T00:16:00.550Z,11.9
2023-04-23T00:17:00.511Z,11.9
2023-04-23T00:18:00.521Z,11.9
2023-04-23T00:19:00.530Z,11.9
2023-04-23T00:20:00.531Z,11.9
2023-04-23T00:21:00.530Z,11.9
2023-04-23T00:22:00.551Z,12
2023-04-23T00:23:00.528Z,12
2023-04-23T00:24:00.536Z,12
2023-04-23T00:25:00.532Z,12
2023-04-23T00:26:00.524Z,12
2023-04-23T00:27:00.534Z,12
2023-04-23T00:28:00.530Z,12.1
2023-04-23T00:29:00.511Z,12
2023-04-23T00:30:00.548Z,12
2023-04-23T00:31:00.527Z,12
2023-04-23T00:32:00.588Z,12
2023-04-23T00:33:00.615Z,12
2023-04-23T00:34:00.552Z,11.9
2023-04-23T00:35:00.547Z,12
2023-04-23T00:36:00.531Z,12
2023-04-23T00:37:00.572Z,12
2023-04-23T00:38:00.526Z,12
2023-04-23T00:39:00.555Z,11.9
2023-04-23T00:40:00.521Z,11.9
2023-04-23T00:41:00.545Z,11.9
2023-04-23T00:42:00.562Z,11.9
2023-04-23T00:43:00.535Z,11.9
2023-04-23T00:44:00.540Z,11.9
2023-04-23T00:45:00.579Z,11.9
2023-04-23T00:46:00.627Z,11.9
2023-04-23T00:47:00.594Z,11.9
2023-04-23T00:48:00.650Z,11.9
2023-04-23T00:49:00.538Z,11.9
2023-04-23T00:50:00.566Z,11.9
2023-04-23T00:51:00.535Z,11.9
2023-04-23T00:52:00.566Z,11.9
2023-04-23T00:53:00.545Z,11.9
2023-04-23T00:54:00.591Z,11.9
2023-04-23T00:55:00.538Z,11.9
2023-04-23T00:56:00.570Z,11.9
2023-04-23T00:57:00.552Z,11.9
2023-04-23T00:58:00.579Z,11.9
2023-04-23T00:59:00.572Z,11.9
2023-04-23T01:00:00.574Z,11.9
2023-04-23T01:01:00.748Z,11.9
2023-04-23T01:02:00.606Z,11.9
2023-04-23T01:03:00.807Z,11.9
2023-04-23T01:04:00.783Z,11.9
2023-04-23T01:05:00.756Z,11.9
2023-04-23T01:06:00.737Z,11.9
2023-04-23T01:07:00.769Z,12
2023-04-23T01:08:00.638Z,12
2023-04-23T01:09:00.760Z,11.9
2023-04-23T01:10:00.588Z,11.9
2023-04-23T01:11:00.627Z,11.9
2023-04-23T01:12:00.788Z,11.9
2023-04-23T01:13:00.700Z,12
2023-04-23T01:14:00.675Z,11.9
2023-04-23T01:15:01.443Z,11.9
2023-04-23T01:16:00.592Z,11.9
2023-04-23T01:17:00.641Z,11.9
2023-04-23T01:18:00.620Z,12
2023-04-23T01:19:00.618Z,12
2023-04-23T01:20:00.576Z,12
2023-04-23T01:21:00.621Z,12
2023-04-23T01:22:00.585Z,12
2023-04-23T01:23:00.617Z,12
2023-04-23T01:24:00.593Z,12
2023-04-23T01:25:00.570Z,12
2023-04-23T01:26:00.612Z,11.9
2023-04-23T01:27:00.592Z,12
2023-04-23T01:28:00.597Z,12
2023-04-23T01:29:00.618Z,12
2023-04-23T01:30:00.632Z,12
2023-04-23T01:31:00.600Z,11.9
2023-04-23T01:32:00.588Z,11.9
2023-04-23T01:33:00.616Z,11.9
2023-04-23T01:34:00.601Z,11.9
2023-04-23T01:35:00.591Z,11.9
2023-04-23T01:36:00.605Z,11.9
2023-04-23T01:37:00.605Z,11.9
2023-04-23T01:38:00.591Z,11.9
2023-04-23T01:39:00.619Z,12
2023-04-23T01:40:00.603Z,12
2023-04-23T01:41:00.591Z,12
2023-04-23T01:42:00.618Z,12
2023-04-23T01:43:00.604Z,11.9
2023-04-23T01:44:00.622Z,12
2023-04-23T01:45:00.597Z,12
2023-04-23T01:46:00.668Z,12
2023-04-23T01:47:00.592Z,11.9
2023-04-23T01:48:00.660Z,12
2023-04-23T01:49:00.646Z,12
2023-04-23T01:50:00.638Z,11.9
2023-04-23T01:51:00.642Z,11.9
2023-04-23T01:52:00.626Z,11.9
2023-04-23T01:53:00.613Z,11.9
2023-04-23T01:54:00.624Z,11.9
2023-04-23T01:55:00.607Z,11.9
2023-04-23T01:56:00.605Z,11.9
2023-04-23T01:57:00.623Z,11.8
2023-04-23T01:58:00.604Z,11.8
2023-04-23T01:59:00.623Z,11.8
2023-04-23T02:00:01.724Z,11.8
2023-04-23T02:01:01.684Z,11.8
2023-04-23T02:02:01.717Z,11.8
2023-04-23T02:03:01.983Z,11.8
2023-04-23T02:04:01.720Z,11.8
2023-04-23T02:05:01.630Z,11.8
2023-04-23T02:06:01.650Z,11.8
2023-04-23T02:07:01.637Z,11.8
2023-04-23T02:08:01.634Z,11.8
2023-04-23T02:09:01.664Z,11.8
2023-04-23T02:10:01.674Z,11.8
2023-04-23T02:11:01.651Z,11.8
2023-04-23T02:12:01.701Z,11.8
2023-04-23T02:13:01.645Z,11.8
2023-04-23T02:14:01.632Z,11.8
2023-04-23T02:15:01.632Z,11.8
2023-04-23T02:16:01.653Z,11.8
2023-04-23T02:17:01.658Z,11.8
2023-04-23T02:18:01.654Z,11.8
2023-04-23T02:19:01.637Z,11.8
2023-04-23T02:20:01.664Z,11.8
2023-04-23T02:21:01.639Z,11.8
2023-04-23T02:22:01.652Z,11.8
2023-04-23T02:23:01.641Z,11.8
2023-04-23T02:24:01.659Z,11.8
2023-04-23T02:25:01.670Z,11.8
2023-04-23T02:26:01.653Z,11.8
2023-04-23T02:27:01.681Z,11.8
2023-04-23T02:28:01.670Z,11.8
2023-04-23T02:29:01.646Z,11.8
2023-04-23T02:30:01.652Z,11.8
2023-04-23T02:31:01.665Z,11.8
2023-04-23T02:32:01.669Z,11.8
2023-04-23T02:33:01.678Z,11.8
2023-04-23T02:34:01.657Z,11.8
2023-04-23T02:35:01.661Z,11.8
2023-04-23T02:36:01.675Z,11.8
2023-04-23T02:37:01.667Z,11.8
2023-04-23T02:38:01.659Z,11.8
2023-04-23T02:39:01.674Z,11.8
2023-04-23T02:40:01.702Z,11.8
2023-04-23T02:41:01.676Z,11.8
2023-04-23T02:42:01.678Z,11.8
2023-04-23T02:43:01.664Z,11.7
2023-04-23T02:44:01.667Z,11.8
2023-04-23T02:45:01.677Z,11.7
2023-04-23T02:46:01.663Z,11.8
2023-04-23T02:47:01.693Z,11.7
2023-04-23T02:48:01.703Z,11.8
2023-04-23T02:49:01.665Z,11.7
2023-04-23T02:50:01.690Z,11.7
2023-04-23T02:51:01.677Z,11.7
2023-04-23T02:52:01.684Z,11.7
2023-04-23T02:53:01.668Z,11.7
2023-04-23T02:54:01.696Z,11.7
2023-04-23T02:55:01.690Z,11.7
2023-04-23T02:56:02.442Z,11.6
2023-04-23T02:57:01.688Z,11.7
2023-04-23T02:58:01.670Z,11.6
2023-04-23T02:59:01.672Z,11.6
2023-04-23T03:00:01.771Z,11.6
2023-04-23T03:01:01.725Z,11.6
2023-04-23T03:02:01.706Z,11.6
2023-04-23T03:03:01.906Z,11.6
2023-04-23T03:04:01.911Z,11.6
2023-04-23T03:05:01.715Z,11.6
2023-04-23T03:06:01.685Z,11.6
2023-04-23T03:07:01.698Z,11.6
2023-04-23T03:08:01.700Z,11.6
2023-04-23T03:09:01.686Z,11.5
2023-04-23T03:10:01.729Z,11.5
2023-04-23T03:11:01.697Z,11.5
2023-04-23T03:12:01.698Z,11.5
2023-04-23T03:13:01.710Z,11.5
2023-04-23T03:14:01.707Z,11.5
2023-04-23T03:15:01.701Z,11.5
2023-04-23T03:16:01.714Z,11.5
2023-04-23T03:17:01.872Z,11.5
2023-04-23T03:18:01.812Z,11.4
2023-04-23T03:19:01.713Z,11.5
2023-04-23T03:20:01.717Z,11.4
2023-04-23T03:21:01.745Z,11.4
2023-04-23T03:22:01.749Z,11.4
2023-04-23T03:23:01.717Z,11.5
2023-04-23T03:24:01.722Z,11.4
2023-04-23T03:25:01.709Z,11.4
2023-04-23T03:26:01.711Z,11.4
2023-04-23T03:27:01.720Z,11.4
2023-04-23T03:28:01.715Z,11.4
2023-04-23T03:29:01.711Z,11.4
2023-04-23T03:30:01.715Z,11.4
2023-04-23T03:31:01.837Z,11.4
2023-04-23T03:32:01.728Z,11.4
2023-04-23T03:33:01.761Z,11.4
2023-04-23T03:34:01.709Z,11.4
2023-04-23T03:35:01.718Z,11.4
2023-04-23T03:36:01.729Z,11.4
2023-04-23T03:37:01.747Z,11.4
2023-04-23T03:38:01.712Z,11.4
2023-04-23T03:39:01.723Z,11.3
2023-04-23T03:40:01.734Z,11.3
2023-04-23T03:41:01.725Z,11.3
2023-04-23T03:42:01.737Z,11.3
2023-04-23T03:43:01.718Z,11.3
2023-04-23T03:44:01.724Z,11.3
2023-04-23T03:45:01.723Z,11.3
2023-04-23T03:46:01.766Z,11.3
2023-04-23T03:47:01.777Z,11.3
2023-04-23T03:48:01.728Z,11.3
2023-04-23T03:49:01.760Z,11.3
2023-04-23T03:50:01.745Z,11.3
2023-04-23T03:51:01.744Z,11.3
2023-04-23T03:52:01.743Z,11.3
2023-04-23T03:53:01.732Z,11.3
2023-04-23T03:54:01.730Z,11.3
2023-04-23T03:55:01.745Z,11.3
2023-04-23T03:56:01.741Z,11.3
2023-04-23T03:57:01.754Z,11.4
2023-04-23T03:58:01.753Z,11.3
2023-04-23T03:59:01.744Z,11.3
2023-04-23T04:00:01.915Z,11.3
2023-04-23T04:01:01.753Z,11.3
2023-04-23T04:02:01.759Z,11.2
2023-04-23T04:03:01.813Z,11.2
2023-04-23T04:04:02.140Z,11.2
2023-04-23T04:05:01.916Z,11.2
2023-04-23T04:06:01.771Z,11.2
2023-04-23T04:07:01.769Z,11.2
2023-04-23T04:08:01.803Z,11.2
2023-04-23T04:09:01.748Z,11.2
2023-04-23T04:10:01.775Z,11.2
2023-04-23T04:11:01.762Z,11.2
2023-04-23T04:12:01.770Z,11.2
2023-04-23T04:13:01.753Z,11.2
2023-04-23T04:14:01.764Z,11.2
2023-04-23T04:15:01.785Z,11.2
2023-04-23T04:16:01.811Z,11.3
2023-04-23T04:17:01.779Z,11.2
2023-04-23T04:18:01.803Z,11.3
2023-04-23T04:19:01.778Z,11.2
2023-04-23T04:20:01.790Z,11.2
2023-04-23T04:21:01.773Z,11.2
2023-04-23T04:22:01.786Z,11.2
2023-04-23T04:23:01.786Z,11.2
2023-04-23T04:24:01.770Z,11.2
2023-04-23T04:25:01.796Z,11.3
2023-04-23T04:26:01.782Z,11.2
2023-04-23T04:27:01.785Z,11.2
2023-04-23T04:28:01.791Z,11.2
2023-04-23T04:29:01.799Z,11.2
2023-04-23T04:30:01.860Z,11.2
2023-04-23T04:31:01.789Z,11.2
2023-04-23T04:32:01.799Z,11.2
2023-04-23T04:33:01.787Z,11.2
2023-04-23T04:34:01.798Z,11.2
2023-04-23T04:35:01.809Z,11.2
2023-04-23T04:36:01.780Z,11.2
2023-04-23T04:37:01.810Z,11.2
2023-04-23T04:38:01.781Z,11.2
2023-04-23T04:39:01.793Z,11.2
2023-04-23T04:40:02.035Z,11.2
2023-04-23T04:41:01.802Z,11.2
2023-04-23T04:42:01.804Z,11.3
2023-04-23T04:43:01.796Z,11.2
2023-04-23T04:44:01.792Z,11.2
2023-04-23T04:45:01.800Z,11.2
2023-04-23T04:46:01.864Z,11.2
2023-04-23T04:47:01.954Z,11.2
2023-04-23T04:48:01.784Z,11.2
2023-04-23T04:49:01.807Z,11.2
2023-04-23T04:50:02.025Z,11.2
2023-04-23T04:51:01.820Z,11.2
2023-04-23T04:52:01.799Z,11.2
2023-04-23T04:53:01.804Z,11.2
2023-04-23T04:54:01.791Z,11.1
2023-04-23T04:55:01.866Z,11.1
2023-04-23T04:56:01.838Z,11.1
2023-04-23T04:57:01.805Z,11.1
2023-04-23T04:58:01.819Z,11.1
2023-04-23T04:59:01.827Z,11.1
2023-04-23T05:00:01.860Z,11.1
2023-04-23T05:01:01.865Z,11.1
2023-04-23T05:02:01.884Z,11.1
2023-04-23T05:03:01.920Z,11.1
2023-04-23T05:04:02.025Z,11.1
2023-04-23T05:05:01.882Z,11.1
2023-04-23T05:06:01.814Z,11.2
2023-04-23T05:07:01.821Z,11.2
2023-04-23T05:08:01.827Z,11.2
2023-04-23T05:09:01.830Z,11.2
2023-04-23T05:10:01.888Z,11.2
2023-04-23T05:11:01.830Z,11.2
2023-04-23T05:12:01.852Z,11.2
2023-04-23T05:13:01.837Z,11.2
2023-04-23T05:14:01.827Z,11.2
2023-04-23T05:15:01.887Z,11.2
2023-04-23T05:16:01.812Z,11.2
2023-04-23T05:17:01.854Z,11.2
2023-04-23T05:18:01.856Z,11.2
2023-04-23T05:19:02.006Z,11.2
2023-04-23T05:20:01.868Z,11.2
2023-04-23T05:21:01.827Z,11.2
2023-04-23T05:22:01.829Z,11.2
2023-04-23T05:23:01.897Z,11.2
2023-04-23T05:24:01.840Z,11.2
2023-04-23T05:25:01.926Z,11.2
2023-04-23T05:26:01.849Z,11.2
2023-04-23T05:27:01.829Z,11.2
2023-04-23T05:28:01.865Z,11.2
2023-04-23T05:29:01.848Z,11.2
2023-04-23T05:30:01.908Z,11.2
2023-04-23T05:31:01.825Z,11.2
2023-04-23T05:32:00.578Z,11.2
2023-04-23T05:33:00.586Z,11.2
2023-04-23T05:34:00.546Z,11.2
2023-04-23T05:35:00.556Z,11.2
2023-04-23T05:36:00.528Z,11.2
2023-04-23T05:37:00.524Z,11.2
2023-04-23T05:38:00.539Z,11.2
2023-04-23T05:39:00.568Z,11.2
2023-04-23T05:40:00.590Z,11.2
2023-04-23T05:41:00.512Z,11.2
2023-04-23T05:42:00.524Z,11.2
2023-04-23T05:43:00.533Z,11.2
2023-04-23T05:44:00.512Z,11.2
2023-04-23T05:45:00.544Z,11.2
2023-04-23T05:46:00.568Z,11.2
2023-04-23T05:47:00.527Z,11.3
2023-04-23T05:48:00.608Z,11.3
2023-04-23T05:49:00.529Z,11.3
2023-04-23T05:50:00.546Z,11.3
2023-04-23T05:51:00.531Z,11.3
2023-04-23T05:52:00.685Z,11.3
2023-04-23T05:53:00.552Z,11.3
2023-04-23T05:54:00.526Z,11.4
2023-04-23T05:55:00.763Z,11.4
2023-04-23T05:56:00.600Z,11.4
2023-04-23T05:57:00.621Z,11.5
2023-04-23T05:58:01.886Z,11.5
2023-04-23T05:59:00.527Z,11.5
2023-04-23T06:00:00.562Z,11.5
2023-04-23T06:01:00.675Z,11.6
2023-04-23T06:02:00.533Z,11.5
2023-04-23T06:03:00.775Z,11.5
2023-04-23T06:04:00.916Z,11.5
2023-04-23T06:05:00.890Z,11.6
2023-04-23T06:06:00.913Z,11.6
2023-04-23T06:07:00.653Z,11.6
2023-04-23T06:08:00.604Z,11.6
2023-04-23T06:09:00.722Z,11.6
2023-04-23T06:10:00.685Z,11.6
2023-04-23T06:11:00.624Z,11.6
2023-04-23T06:12:00.676Z,11.6
2023-04-23T06:13:00.670Z,11.6
2023-04-23T06:14:00.707Z,11.6
2023-04-23T06:15:00.757Z,11.6
2023-04-23T06:16:00.870Z,11.7
2023-04-23T06:17:00.691Z,11.6
2023-04-23T06:18:00.716Z,11.6
2023-04-23T06:19:00.795Z,11.7
2023-04-23T06:20:00.769Z,11.6
2023-04-23T06:21:00.650Z,11.7
2023-04-23T06:22:00.782Z,11.7
2023-04-23T06:23:00.699Z,11.8
2023-04-23T06:24:00.714Z,11.8
2023-04-23T06:25:00.781Z,11.8
2023-04-23T06:26:00.671Z,11.8
2023-04-23T06:27:00.647Z,11.8
2023-04-23T06:28:00.589Z,11.8
2023-04-23T06:29:00.599Z,11.8
2023-04-23T06:30:00.614Z,11.8
2023-04-23T06:31:00.624Z,11.7
2023-04-23T06:32:00.622Z,11.6
2023-04-23T06:33:00.600Z,11.6
2023-04-23T06:34:00.603Z,11.6
2023-04-23T06:35:02.364Z,11.6
2023-04-23T06:36:00.569Z,11.6
2023-04-23T06:37:00.576Z,11.6
2023-04-23T06:38:00.567Z,11.6
2023-04-23T06:39:00.592Z,11.6
2023-04-23T06:40:00.665Z,11.7
2023-04-23T06:41:00.574Z,11.7
2023-04-23T06:42:00.570Z,11.8
2023-04-23T06:43:00.578Z,11.8
2023-04-23T06:44:00.579Z,11.8
2023-04-23T06:45:00.598Z,11.8
2023-04-23T06:46:00.583Z,11.8
2023-04-23T06:47:00.646Z,11.8
2023-04-23T06:48:00.628Z,11.8
2023-04-23T06:49:00.597Z,11.9
2023-04-23T06:50:00.629Z,11.9
2023-04-23T06:51:00.682Z,11.9
2023-04-23T06:52:00.595Z,11.9
2023-04-23T06:53:00.579Z,11.9
2023-04-23T06:54:00.587Z,11.9
2023-04-23T06:55:00.607Z,11.9
2023-04-23T06:56:00.589Z,11.9
2023-04-23T06:57:00.605Z,12
2023-04-23T06:58:00.586Z,12.1
2023-04-23T06:59:00.600Z,12.1
2023-04-23T07:00:00.611Z,12.1
2023-04-23T07:01:00.650Z,12.2
2023-04-23T07:02:00.600Z,12.2
2023-04-23T07:03:00.678Z,12.3
2023-04-23T07:04:00.762Z,12.3
2023-04-23T07:05:00.619Z,12.4
2023-04-23T07:06:00.596Z,12.4
2023-04-23T07:07:00.627Z,12.4
2023-04-23T07:08:00.617Z,12.4
2023-04-23T07:09:00.606Z,12.5
2023-04-23T07:10:00.653Z,12.5
2023-04-23T07:11:00.617Z,12.5
2023-04-23T07:12:00.633Z,12.5
2023-04-23T07:13:00.642Z,12.5
2023-04-23T07:14:00.631Z,12.5
2023-04-23T07:15:00.679Z,12.5
2023-04-23T07:16:00.622Z,12.6
2023-04-23T07:17:00.776Z,12.6
2023-04-23T07:18:00.689Z,12.6
2023-04-23T07:19:00.619Z,12.6
2023-04-23T07:20:00.645Z,12.6
2023-04-23T07:21:00.648Z,12.6
2023-04-23T07:22:00.630Z,12.6
2023-04-23T07:23:00.664Z,12.6
2023-04-23T07:24:00.747Z,12.6
2023-04-23T07:25:00.674Z,12.6
2023-04-23T07:26:00.665Z,12.6
2023-04-23T07:27:00.643Z,12.6
2023-04-23T07:28:00.665Z,12.6
2023-04-23T07:29:00.641Z,12.6
2023-04-23T07:30:00.665Z,12.7
2023-04-23T07:31:00.677Z,12.7
2023-04-23T07:32:00.678Z,12.8
2023-04-23T07:33:00.700Z,12.7
2023-04-23T07:34:00.665Z,12.7
2023-04-23T07:35:00.665Z,12.7
2023-04-23T07:36:00.642Z,12.7
2023-04-23T07:37:00.655Z,12.7
2023-04-23T07:38:00.673Z,12.7
2023-04-23T07:39:00.658Z,12.7
2023-04-23T07:40:00.679Z,12.7
2023-04-23T07:41:00.685Z,12.7
2023-04-23T07:42:00.655Z,12.7
2023-04-23T07:43:00.657Z,12.7
2023-04-23T07:44:00.664Z,12.7
2023-04-23T07:45:01.010Z,12.6
2023-04-23T07:46:00.671Z,12.6
2023-04-23T07:47:00.785Z,12.6
2023-04-23T07:48:00.695Z,12.6
2023-04-23T07:49:00.662Z,12.7
2023-04-23T07:50:00.688Z,12.7
2023-04-23T07:51:00.679Z,12.7
2023-04-23T07:52:00.675Z,12.8
2023-04-23T07:53:00.669Z,12.8
2023-04-23T07:54:00.680Z,12.7
2023-04-23T07:55:00.695Z,12.7
2023-04-23T07:56:00.692Z,12.6
2023-04-23T07:57:00.675Z,12.6
2023-04-23T07:58:00.682Z,12.6
2023-04-23T07:59:00.676Z,12.6
2023-04-23T08:00:00.721Z,12.6
2023-04-23T08:01:00.703Z,12.6
2023-04-23T08:02:00.703Z,12.7
2023-04-23T08:03:00.807Z,12.6
2023-04-23T08:04:00.958Z,12.6
2023-04-23T08:05:00.884Z,12.7
2023-04-23T08:06:00.704Z,12.6
2023-04-23T08:07:00.681Z,12.6
2023-04-23T08:08:00.688Z,12.6
2023-04-23T08:09:01.397Z,12.6
2023-04-23T08:10:00.760Z,12.7
2023-04-23T08:11:00.708Z,12.7
2023-04-23T08:12:00.753Z,12.8
2023-04-23T08:13:00.712Z,12.8
2023-04-23T08:14:00.688Z,12.8
2023-04-23T08:15:00.714Z,12.9
2023-04-23T08:16:00.779Z,12.9
2023-04-23T08:17:00.695Z,13
2023-04-23T08:18:00.779Z,13.1
2023-04-23T08:20:00.752Z,13.2
2023-04-23T08:21:00.711Z,13.3
2023-04-23T08:22:00.702Z,13.4
2023-04-23T08:23:00.716Z,13.4
2023-04-23T08:24:00.704Z,13.2
2023-04-23T08:25:00.725Z,13.2
2023-04-23T08:26:00.797Z,13.2
2023-04-23T08:27:00.727Z,13.2
2023-04-23T08:28:00.715Z,13.2
2023-04-23T08:29:00.793Z,13.2
2023-04-23T08:30:00.748Z,13.2
2023-04-23T08:31:00.779Z,13.2
2023-04-23T08:32:00.725Z,13.3
2023-04-23T08:33:00.761Z,13.3
2023-04-23T08:34:00.721Z,13.4
2023-04-23T08:35:00.713Z,13.4
2023-04-23T08:36:00.766Z,13.4
2023-04-23T08:37:00.717Z,13.5
2023-04-23T08:38:00.730Z,13.6
2023-04-23T08:39:00.732Z,13.6
2023-04-23T08:40:00.770Z,13.8
2023-04-23T08:41:00.745Z,13.9
2023-04-23T08:42:00.734Z,14
2023-04-23T08:43:00.723Z,14.1
2023-04-23T08:44:00.741Z,14.2
2023-04-23T08:45:00.729Z,14.3
2023-04-23T08:46:00.737Z,14.4
2023-04-23T08:47:00.748Z,14.4
2023-04-23T08:48:02.366Z,14.5
2023-04-23T08:49:00.727Z,14.6
2023-04-23T08:50:00.736Z,14.6
2023-04-23T08:51:00.742Z,14.7
2023-04-23T08:52:00.730Z,14.8
2023-04-23T08:53:00.772Z,14.9
2023-04-23T08:54:00.755Z,14.9
2023-04-23T08:55:00.764Z,15
2023-04-23T08:56:00.762Z,15
2023-04-23T08:57:00.734Z,15
2023-04-23T08:58:00.735Z,15
2023-04-23T08:59:00.732Z,15
2023-04-23T09:00:00.778Z,14.9
2023-04-23T09:01:00.833Z,14.8
2023-04-23T09:02:00.836Z,14.7
2023-04-23T09:03:00.856Z,14.6
2023-04-23T09:04:00.833Z,14.6
2023-04-23T09:05:00.767Z,14.6
2023-04-23T09:06:00.768Z,14.7
2023-04-23T09:07:00.777Z,14.8
2023-04-23T09:08:00.764Z,14.8
2023-04-23T09:09:00.758Z,14.9
2023-04-23T09:10:00.770Z,15
2023-04-23T09:11:00.767Z,15.1
2023-04-23T09:12:00.769Z,15.2
2023-04-23T09:13:00.761Z,15.3
2023-04-23T09:14:00.760Z,15.4
2023-04-23T09:15:00.761Z,15.5
2023-04-23T09:16:00.763Z,15.6
2023-04-23T09:17:00.748Z,15.6
2023-04-23T09:18:00.769Z,15.8
2023-04-23T09:19:00.759Z,15.9
2023-04-23T09:20:00.778Z,15.9
2023-04-23T09:21:00.772Z,15.9
2023-04-23T09:22:00.786Z,15.9
2023-04-23T09:23:00.773Z,15.9
2023-04-23T09:24:00.767Z,15.8
2023-04-23T09:25:00.783Z,15.8
2023-04-23T09:26:00.778Z,15.9
2023-04-23T09:27:00.758Z,15.8
2023-04-23T09:28:00.811Z,15.8
2023-04-23T09:29:00.768Z,15.8
2023-04-23T09:30:00.771Z,15.8
2023-04-23T09:31:00.787Z,15.9
2023-04-23T09:32:00.799Z,15.9
2023-04-23T09:33:00.834Z,15.9
2023-04-23T09:34:00.768Z,15.9
2023-04-23T09:35:00.778Z,16
2023-04-23T09:36:00.797Z,16
2023-04-23T09:37:00.770Z,16.1
2023-04-23T09:38:00.794Z,16.1
2023-04-23T09:39:00.784Z,16.1
2023-04-23T09:40:00.815Z,16
2023-04-23T09:41:00.811Z,16.1
2023-04-23T09:42:00.781Z,16.1
2023-04-23T09:43:00.787Z,16.1
2023-04-23T09:44:00.807Z,16.2
2023-04-23T09:45:00.807Z,16.2
2023-04-23T09:46:00.872Z,16.1
2023-04-23T09:47:00.796Z,16.1
2023-04-23T09:48:00.828Z,16.2
2023-04-23T09:49:00.788Z,16.2
2023-04-23T09:50:00.844Z,16.3
2023-04-23T09:51:00.801Z,16.4
2023-04-23T09:52:00.789Z,16.4
2023-04-23T09:53:00.826Z,16.6
2023-04-23T09:54:00.797Z,16.7
2023-04-23T09:55:00.808Z,16.9
2023-04-23T09:56:00.819Z,17
2023-04-23T09:57:00.791Z,17.1
2023-04-23T09:58:00.800Z,17.1
2023-04-23T09:59:00.805Z,17.2
2023-04-23T10:00:13.461Z,17.2
2023-04-23T10:01:00.815Z,17.2
2023-04-23T10:02:00.827Z,17.2
2023-04-23T10:03:00.957Z,17.2
2023-04-23T10:04:00.928Z,17.1
2023-04-23T10:05:14.300Z,17
2023-04-23T10:06:02.364Z,17
2023-04-23T10:07:17.387Z,17
2023-04-23T10:08:00.829Z,17
2023-04-23T10:09:00.809Z,17
2023-04-23T10:10:00.928Z,16.9
2023-04-23T10:11:17.707Z,16.9
2023-04-23T10:12:00.806Z,16.9
2023-04-23T10:13:01.048Z,17
2023-04-23T10:14:00.813Z,17.1
2023-04-23T10:15:01.002Z,17.1
2023-04-23T10:16:13.977Z,17.2
2023-04-23T10:17:00.902Z,17.2
2023-04-23T10:18:01.163Z,17.2
2023-04-23T10:19:00.916Z,17.3
2023-04-23T10:20:01.013Z,17.3
2023-04-23T10:21:00.901Z,17.4
2023-04-23T10:22:12.070Z,17.4
2023-04-23T10:23:00.976Z,17.5
2023-04-23T10:24:00.868Z,17.6
2023-04-23T10:25:00.921Z,17.7
2023-04-23T10:26:00.828Z,17.8
2023-04-23T10:27:02.067Z,17.9
2023-04-23T10:28:00.838Z,18.1
2023-04-23T10:29:00.842Z,18.2
2023-04-23T10:30:00.916Z,18.2
2023-04-23T10:31:00.922Z,18.2
2023-04-23T10:32:00.855Z,18.3
2023-04-23T10:33:00.928Z,18.4
2023-04-23T10:34:00.913Z,18.4
2023-04-23T10:35:00.852Z,18.4
2023-04-23T10:36:00.840Z,18.4
2023-04-23T10:37:00.826Z,18.3
2023-04-23T10:38:00.873Z,18.3
2023-04-23T10:39:02.120Z,18.2
2023-04-23T10:40:00.885Z,18.2
2023-04-23T10:41:00.887Z,18.1
2023-04-23T10:42:00.845Z,18
2023-04-23T10:43:00.856Z,18
2023-04-23T10:44:00.872Z,18.1
2023-04-23T10:45:07.106Z,18.1
2023-04-23T10:46:00.868Z,18.1
2023-04-23T10:47:00.922Z,18.1
2023-04-23T10:48:00.935Z,18.1
2023-04-23T10:49:00.873Z,18.2
2023-04-23T10:50:00.902Z,18.2
2023-04-23T10:51:14.474Z,18.1
2023-04-23T10:53:00.850Z,18.1
2023-04-23T10:54:00.877Z,18.1
2023-04-23T10:55:00.923Z,18.1
2023-04-23T10:56:00.873Z,18.1
2023-04-23T10:57:00.863Z,18.3
2023-04-23T10:58:02.056Z,18.4
2023-04-23T10:59:00.873Z,18.4
2023-04-23T11:00:00.889Z,18.4
2023-04-23T11:01:00.893Z,18.3
2023-04-23T11:02:00.982Z,18.3
2023-04-23T11:03:00.953Z,18.2
2023-04-23T11:04:01.045Z,18.2
2023-04-23T11:05:00.973Z,18.3
2023-04-23T11:06:00.871Z,18.4
2023-04-23T11:07:00.861Z,18.4
2023-04-23T11:08:11.036Z,18.5
2023-04-23T11:09:00.959Z,18.6
2023-04-23T11:10:01.018Z,18.7
2023-04-23T11:11:00.902Z,18.7
2023-04-23T11:12:00.907Z,18.8
2023-04-23T11:13:00.935Z,18.7
2023-04-23T11:14:00.981Z,18.6
2023-04-23T11:15:00.924Z,18.6
2023-04-23T11:16:00.910Z,18.6
2023-04-23T11:17:00.895Z,18.6
2023-04-23T11:18:01.013Z,18.6
2023-04-23T11:19:00.883Z,18.6
2023-04-23T11:20:00.935Z,18.6
2023-04-23T11:21:00.887Z,18.7
2023-04-23T11:22:00.909Z,18.8
2023-04-23T11:23:00.925Z,18.9
2023-04-23T11:24:00.935Z,18.9
2023-04-23T11:25:00.960Z,19
2023-04-23T11:26:00.965Z,19.1
2023-04-23T11:27:00.926Z,19.2
2023-04-23T11:28:00.905Z,19.2
2023-04-23T11:29:00.918Z,19.2
2023-04-23T11:30:00.981Z,19.2
2023-04-23T11:31:00.924Z,19.4
2023-04-23T11:32:03.601Z,19.5
2023-04-23T11:33:01.015Z,19.5
2023-04-23T11:34:00.833Z,19.4
2023-04-23T11:35:00.852Z,19.3
2023-04-23T11:36:00.785Z,19.3
2023-04-23T11:37:00.736Z,19.3
2023-04-23T11:38:00.726Z,19.2
2023-04-23T11:39:00.686Z,19.2
2023-04-23T11:40:00.701Z,19.2
2023-04-23T11:41:00.631Z,19.2
2023-04-23T11:42:00.619Z,19.2
2023-04-23T11:43:00.604Z,19.2
2023-04-23T11:44:00.563Z,19.2
2023-04-23T11:45:00.564Z,19.2
2023-04-23T11:46:00.527Z,19.2
2023-04-23T11:47:00.525Z,19.2
2023-04-23T11:48:00.692Z,19.4
2023-04-23T11:49:00.580Z,19.4
2023-04-23T11:50:00.572Z,19.4
2023-04-23T11:51:00.521Z,19.3
2023-04-23T11:52:00.528Z,19.4
2023-04-23T11:53:00.526Z,19.4
2023-04-23T11:54:00.515Z,19.4
2023-04-23T11:55:00.638Z,19.4
2023-04-23T11:56:00.530Z,19.4
2023-04-23T11:57:00.733Z,19.4
2023-04-23T11:58:00.705Z,19.5
2023-04-23T11:59:00.497Z,19.6
2023-04-23T12:00:00.869Z,19.7
2023-04-23T12:01:00.547Z,19.8
2023-04-23T12:02:00.557Z,19.8
2023-04-23T12:03:00.643Z,19.8
2023-04-23T12:04:00.774Z,19.7
2023-04-23T12:05:00.613Z,19.7
2023-04-23T12:06:00.640Z,19.7
2023-04-23T12:07:00.513Z,19.6
2023-04-23T12:08:00.528Z,19.7
2023-04-23T12:09:00.514Z,19.9
2023-04-23T12:10:00.612Z,19.9
2023-04-23T12:11:00.588Z,19.9
2023-04-23T12:12:00.591Z,20
2023-04-23T12:13:00.612Z,20.2
2023-04-23T12:14:00.558Z,20.2
2023-04-23T12:15:00.558Z,20.3
2023-04-23T12:16:00.575Z,20.4
2023-04-23T12:17:00.512Z,20.4
2023-04-23T12:18:00.526Z,20.4
2023-04-23T12:19:00.546Z,20.5
2023-04-23T12:20:00.526Z,20.4
2023-04-23T12:21:00.525Z,20.5
2023-04-23T12:22:00.564Z,20.5
2023-04-23T12:23:00.503Z,20.6
2023-04-23T12:24:00.506Z,20.6
2023-04-23T12:25:00.578Z,20.6
2023-04-23T12:26:00.532Z,20.4
2023-04-23T12:27:00.690Z,20.4
2023-04-23T12:28:00.516Z,20.3
2023-04-23T12:29:00.514Z,20.2
2023-04-23T12:30:00.581Z,20.3
2023-04-23T12:31:00.572Z,20.4
2023-04-23T12:32:00.558Z,20.4
2023-04-23T12:33:00.626Z,20.6
2023-04-23T12:34:00.529Z,20.7
2023-04-23T12:35:00.526Z,20.8
2023-04-23T12:36:00.557Z,20.8
2023-04-23T12:37:00.589Z,20.7
2023-04-23T12:38:00.550Z,20.6
2023-04-23T12:39:00.534Z,20.6
2023-04-23T12:40:00.548Z,20.6
2023-04-23T12:41:00.546Z,20.6
2023-04-23T12:42:00.521Z,20.7
2023-04-23T12:43:00.597Z,20.7
2023-04-23T12:44:00.529Z,20.7
2023-04-23T12:45:00.540Z,20.8
2023-04-23T12:46:00.552Z,20.9
2023-04-23T12:47:00.764Z,21
2023-04-23T12:48:00.585Z,21.1
2023-04-23T12:49:00.535Z,21.2
2023-04-23T12:50:00.566Z,21.3
2023-04-23T12:51:00.548Z,21.4
2023-04-23T12:52:00.561Z,21.4
2023-04-23T12:53:00.556Z,21.4
2023-04-23T12:54:00.561Z,21.4
2023-04-23T12:55:00.580Z,21.4
2023-04-23T12:56:00.557Z,21.4
2023-04-23T12:57:00.548Z,21.6
2023-04-23T12:58:00.569Z,21.6
2023-04-23T12:59:00.566Z,21.7
2023-04-23T13:00:00.598Z,21.8
2023-04-23T13:01:00.645Z,21.8
2023-04-23T13:02:00.644Z,21.8
2023-04-23T13:03:00.599Z,21.6
2023-04-23T13:04:00.601Z,21.6
2023-04-23T13:05:00.587Z,21.5
2023-04-23T13:06:00.578Z,21.4
2023-04-23T13:07:00.561Z,21.4
2023-04-23T13:08:00.566Z,21.4
2023-04-23T13:09:00.561Z,21.5
2023-04-23T13:10:00.575Z,21.4
2023-04-23T13:11:00.568Z,21.3
2023-04-23T13:12:01.021Z,21.3
2023-04-23T13:13:00.565Z,21.3
2023-04-23T13:14:00.576Z,21.4
2023-04-23T13:15:00.584Z,21.4
2023-04-23T13:16:00.650Z,21.5
2023-04-23T13:17:00.576Z,21.5
2023-04-23T13:18:00.629Z,21.4
2023-04-23T13:19:00.567Z,21.4
2023-04-23T13:20:00.592Z,21.4
2023-04-23T13:21:00.572Z,21.3
2023-04-23T13:22:00.601Z,21.3
2023-04-23T13:23:00.581Z,21.1
2023-04-23T13:24:00.574Z,21.1